Thunder radar more information blitzortung!


Löydät sääaseman tiedot myös:

European Weather Network

Finland Weather Exchange

Weather Underground

AWEKAS



Weather Underground säähistoriasivu

Päivittäin yhteenveto Heinäkuu 25, 2017 Yksiköt:  Englantilaiset    Metriset   Molemmat
« Edellinen Päivä
Seuraava Päivä »
Päivittäin Viikoittain Kuukausittain Vuosittain Mukautettu
  Korkea: Matala: Keskiarvo:
Lämpötila: TemperatureC °F 10.1 °F 14.3 °F
Kastepiste: DewpointC °F 9.4 °F 12.9 °F
Kosteus: Humidity % 80 % 91 %
Tuulen nopeus: WindSpeedKMH mph 0.0 mph 0 mph
Tuulenpuuska: WindSpeedGustKMH mph - -
Tuuli:- - NW
Ilmanpaine: PressurehPa in 1009.7 in -
Sade: 0.0 in    
Historical Graphs
 
 
Taulukkotiedot Heinäkuu 25, 2017
Aika Lämpötila Kastepiste Ilmanpaine Tuuli Tuulen nopeus Tuulenpuuska Kosteus Sademäärä (tunneittain)
TemperatureC °F DewpointC °F PressurehPa in Calm     Humidity % HourlyPrecipMM in
00:00 14.5 °F 13.4 °F 1013.1 in Calm     93 % 0.0 in
00:10 14.3 °F 13.2 °F 1013.1 in Calm     93 % 0.0 in
00:15 14.2 °F 13.1 °F 1013.4 in Calm     93 % 0.0 in
00:20 14.1 °F 13.0 °F 1013.4 in Calm     93 % 0.0 in
00:30 13.8 °F 12.7 °F 1013.4 in Calm     93 % 0.0 in
00:35 13.8 °F 12.7 °F 1013.4 in Calm     93 % 0.0 in
00:40 13.7 °F 12.6 °F 1013.4 in Calm     93 % 0.0 in
00:45 13.6 °F 12.4 °F 1013.4 in Calm     93 % 0.0 in
00:50 13.5 °F 12.6 °F 1013.4 in Calm     94 % 0.0 in
00:55 13.4 °F 12.4 °F 1013.4 in Calm     94 % 0.0 in
01:00 13.3 °F 12.4 °F 1013.4 in Calm     94 % 0.0 in
01:05 13.2 °F 12.1 °F 1013.4 in Calm     93 % 0.0 in
01:10 13.0 °F 12.1 °F 1013.4 in Calm     94 % 0.0 in
01:15 12.9 °F 11.9 °F 1013.4 in Calm     94 % 0.0 in
01:20 12.7 °F 11.8 °F 1013.4 in Calm     94 % 0.0 in
01:25 12.6 °F 11.7 °F 1013.4 in Calm     94 % 0.0 in
01:30 12.5 °F 11.6 °F 1013.4 in Calm     94 % 0.0 in
01:35 12.4 °F 11.4 °F 1013.4 in Calm     94 % 0.0 in
01:40 12.3 °F 11.3 °F 1013.4 in Calm     94 % 0.0 in
01:45 12.2 °F 11.4 °F 1013.4 in Calm     95 % 0.0 in
01:50 12.2 °F 11.4 °F 1013.4 in Calm     95 % 0.0 in
01:55 12.2 °F 11.4 °F 1013.4 in Calm     95 % 0.0 in
02:00 12.2 °F 11.4 °F 1013.4 in Calm     95 % 0.0 in
02:05 12.1 °F 11.3 °F 1013.4 in Calm     95 % 0.0 in
02:10 12.1 °F 11.3 °F 1013.4 in Calm     95 % 0.0 in
02:15 12.1 °F 11.3 °F 1013.4 in Calm     95 % 0.0 in
02:20 12.0 °F 11.2 °F 1013.1 in Calm     95 % 0.0 in
02:25 11.9 °F 11.3 °F 1013.1 in Calm     96 % 0.0 in
02:30 11.9 °F 11.3 °F 1013.1 in Calm     96 % 0.0 in
02:35 11.9 °F 11.3 °F 1013.1 in Calm     96 % 0.0 in
02:40 11.8 °F 11.1 °F 1013.1 in Calm     95 % 0.0 in
02:45 11.8 °F 11.0 °F 1013.1 in Calm     95 % 0.0 in
02:50 11.7 °F 10.9 °F 1013.1 in Calm     95 % 0.0 in
02:55 11.7 °F 11.1 °F 1013.1 in Calm     96 % 0.0 in
03:00 11.6 °F 11.0 °F 1013.1 in Calm     96 % 0.0 in
03:05 11.6 °F 10.9 °F 1013.1 in Calm     96 % 0.0 in
03:10 11.5 °F 10.7 °F 1013.1 in Calm     95 % 0.0 in
03:15 11.4 °F 10.6 °F 1013.1 in Calm     95 % 0.0 in
03:20 11.3 °F 10.6 °F 1013.1 in Calm     95 % 0.0 in
03:25 11.2 °F 10.4 °F 1013.1 in Calm     95 % 0.0 in
03:30 11.1 °F 10.3 °F 1013.1 in Calm     95 % 0.0 in
03:35 11.0 °F 10.2 °F 1013.1 in Calm     95 % 0.0 in
03:40 10.9 °F 10.1 °F 1013.1 in Calm     95 % 0.0 in
03:45 10.8 °F 10.0 °F 1013.1 in Calm     95 % 0.0 in
03:50 10.7 °F 9.9 °F 1013.1 in Calm     95 % 0.0 in
04:00 10.6 °F 9.9 °F 1013.1 in Calm     96 % 0.0 in
04:05 10.6 °F 9.9 °F 1013.1 in Calm     96 % 0.0 in
04:10 10.5 °F 9.9 °F 1013.1 in Calm     96 % 0.0 in
04:15 10.4 °F 9.8 °F 1013.1 in Calm     96 % 0.0 in
04:20 10.5 °F 9.9 °F 1013.1 in Calm     96 % 0.0 in
04:25 10.5 °F 9.9 °F 1013.1 in Calm     96 % 0.0 in
04:30 10.4 °F 9.8 °F 1013.1 in Calm     96 % 0.0 in
04:35 10.4 °F 9.8 °F 1013.1 in Calm     96 % 0.0 in
04:40 10.3 °F 9.7 °F 1013.1 in Calm     96 % 0.0 in
04:45 10.2 °F 9.6 °F 1013.1 in Calm     96 % 0.0 in
04:50 10.1 °F 9.4 °F 1013.1 in Calm     96 % 0.0 in
04:55 10.1 °F 9.4 °F 1013.1 in Calm     96 % 0.0 in
05:00 10.1 °F 9.6 °F 1013.1 in Calm     97 % 0.0 in
05:05 10.1 °F 9.6 °F 1013.1 in Calm     97 % 0.0 in
05:10 10.1 °F 9.7 °F 1013.1 in Calm     97 % 0.0 in
05:15 10.1 °F 9.7 °F 1013.1 in Calm     97 % 0.0 in
05:20 10.1 °F 9.7 °F 1013.1 in Calm     97 % 0.0 in
05:25 10.2 °F 9.8 °F 1013.1 in Calm     97 % 0.0 in
05:30 10.3 °F 9.9 °F 1012.8 in Calm     97 % 0.0 in
05:40 10.4 °F 10.0 °F 1012.8 in Calm     97 % 0.0 in
05:45 10.5 °F 10.1 °F 1012.8 in Calm     97 % 0.0 in
05:50 10.6 °F 10.2 °F 1012.8 in Calm     97 % 0.0 in
05:55 10.7 °F 10.2 °F 1012.8 in Calm     97 % 0.0 in
06:00 10.8 °F 10.3 °F 1012.8 in Calm     97 % 0.0 in
06:05 10.8 °F 10.4 °F 1012.8 in Calm     97 % 0.0 in
06:10 10.9 °F 10.5 °F 1012.8 in Calm     97 % 0.0 in
06:15 11.0 °F 10.6 °F 1012.8 in Calm     97 % 0.0 in
06:20 11.1 °F 10.6 °F 1012.8 in Calm     97 % 0.0 in
06:30 11.2 °F 10.8 °F 1012.8 in Calm     97 % 0.0 in
06:35 11.3 °F 10.8 °F 1012.8 in Calm     97 % 0.0 in
06:40 11.4 °F 10.9 °F 1012.8 in Calm     97 % 0.0 in
06:45 11.4 °F 11.0 °F 1012.8 in Calm     97 % 0.0 in
06:50 11.5 °F 11.2 °F 1012.8 in Calm     98 % 0.0 in
06:55 11.6 °F 11.2 °F 1012.8 in Calm     97 % 0.0 in
07:00 11.8 °F 11.5 °F 1012.8 in Calm     98 % 0.0 in
07:05 11.9 °F 11.6 °F 1012.8 in Calm     98 % 0.0 in
07:15 12.2 °F 11.9 °F 1012.8 in Calm     98 % 0.0 in
07:20 12.4 °F 12.1 °F 1012.8 in Calm     98 % 0.0 in
07:25 12.6 °F 12.2 °F 1012.4 in Calm     98 % 0.0 in
07:35 12.9 °F 12.6 °F 1012.4 in Calm     98 % 0.0 in
07:40 13.0 °F 12.7 °F 1012.4 in Calm     98 % 0.0 in
07:45 13.1 °F 12.7 °F 1012.4 in Calm     98 % 0.0 in
07:50 13.2 °F 12.8 °F 1012.4 in Calm     98 % 0.0 in
07:55 13.3 °F 13.0 °F 1012.1 in Calm     98 % 0.0 in
08:00 13.4 °F 13.1 °F 1012.4 in Calm     98 % 0.0 in
08:05 13.4 °F 13.1 °F 1012.4 in Calm     98 % 0.0 in
08:10 13.5 °F 13.2 °F 1012.4 in Calm     98 % 0.0 in
08:15 13.6 °F 13.2 °F 1012.1 in Calm     98 % 0.0 in
08:20 13.6 °F 13.3 °F 1012.1 in Calm     98 % 0.0 in
08:25 13.7 °F 13.3 °F 1012.1 in Calm     98 % 0.0 in
08:30 13.8 °F 13.5 °F 1012.1 in Calm   4.8 mph 98 % 0.0 in
08:35 13.9 °F 13.6 °F 1012.1 in Calm   4.8 mph 98 % 0.0 in
08:40 13.9 °F 13.6 °F 1012.1 in Calm   4.8 mph 98 % 0.0 in
08:45 14.1 °F 13.7 °F 1012.1 in Calm     98 % 0.0 in
08:50 14.2 °F 13.9 °F 1012.1 in Calm     98 % 0.0 in
08:55 14.3 °F 14.0 °F 1012.1 in Calm     98 % 0.0 in
09:00 14.4 °F 13.9 °F 1011.7 in Calm   1.6 mph 97 % 0.0 in
09:05 14.4 °F 14.0 °F 1011.7 in Calm   1.6 mph 97 % 0.0 in
09:10 14.6 °F 13.9 °F 1011.7 in Calm     96 % 0.0 in
09:15 14.6 °F 14.0 °F 1011.7 in Calm     96 % 0.0 in
09:20 14.7 °F 13.9 °F 1011.7 in Calm   3.2 mph 95 % 0.0 in
09:25 14.8 °F 14.0 °F 1011.7 in Calm   3.2 mph 95 % 0.0 in
09:30 14.8 °F 14.1 °F 1011.7 in Calm   1.6 mph 95 % 0.0 in
09:35 14.9 °F 13.8 °F 1011.7 in Calm   1.6 mph 93 % 0.0 in
09:40 15.0 °F 13.9 °F 1011.7 in Calm   1.6 mph 93 % 0.0 in
09:45 15.1 °F 13.9 °F 1011.7 in Calm   1.6 mph 93 % 0.0 in
09:50 15.1 °F 13.8 °F 1011.7 in Calm   1.6 mph 92 % 0.0 in
09:55 15.1 °F 13.8 °F 1011.7 in Calm   1.6 mph 92 % 0.0 in
10:00 15.2 °F 13.7 °F 1011.7 in Calm   3.2 mph 91 % 0.0 in
10:05 15.3 °F 13.7 °F 1011.7 in Calm   3.2 mph 90 % 0.0 in
10:10 15.3 °F 13.9 °F 1011.7 in Calm     91 % 0.0 in
10:15 15.4 °F 13.6 °F 1011.7 in Calm   1.6 mph 89 % 0.0 in
10:20 15.4 °F 13.8 °F 1011.7 in Calm   1.6 mph 90 % 0.0 in
10:25 15.5 °F 13.7 °F 1011.7 in Calm     89 % 0.0 in
10:30 15.5 °F 13.7 °F 1011.7 in Calm     89 % 0.0 in
10:35 15.4 °F 13.4 °F 1011.7 in Calm     88 % 0.0 in
10:40 15.4 °F 13.6 °F 1011.7 in Calm     89 % 0.0 in
10:45 15.3 °F 13.6 °F 1011.7 in Calm     89 % 0.0 in
10:50 15.3 °F 13.6 °F 1011.7 in Calm     89 % 0.0 in
10:55 15.4 °F 13.4 °F 1011.7 in Calm     88 % 0.0 in
11:00 15.4 °F 13.6 °F 1011.7 in Calm   3.2 mph 89 % 0.0 in
11:05 15.4 °F 13.4 °F 1011.4 in Calm   4.8 mph 88 % 0.0 in
11:10 15.4 °F 13.4 °F 1011.4 in Calm   6.4 mph 88 % 0.0 in
11:15 15.4 °F 13.4 °F 1011.4 in Calm   6.4 mph 88 % 0.0 in
11:20 15.4 °F 13.4 °F 1011.4 in Calm   6.4 mph 88 % 0.0 in
11:25 15.4 °F 13.4 °F 1011.4 in Calm     88 % 0.0 in
11:30 15.4 °F 13.3 °F 1011.4 in Calm   4.8 mph 87 % 0.0 in
11:35 15.4 °F 13.3 °F 1011.4 in Calm   4.8 mph 87 % 0.0 in
11:40 15.4 °F 13.3 °F 1011.4 in Calm   3.2 mph 87 % 0.0 in
11:45 15.3 °F 13.2 °F 1011.4 in Calm   3.2 mph 87 % 0.0 in
11:50 15.3 °F 13.1 °F 1011.4 in Calm   1.6 mph 87 % 0.0 in
11:55 15.2 °F 13.2 °F 1011.4 in Calm   3.2 mph 88 % 0.0 in
12:00 15.2 °F 13.2 °F 1011.4 in Calm   3.2 mph 88 % 0.0 in
12:05 15.1 °F 13.3 °F 1011.4 in Calm   3.2 mph 89 % 0.0 in
12:10 15.2 °F 13.6 °F 1011.4 in Calm   1.6 mph 90 % 0.0 in
12:15 15.2 °F 13.6 °F 1011.4 in Calm   1.6 mph 90 % 0.0 in
12:20 15.4 °F 13.8 °F 1011.4 in Calm   1.6 mph 90 % 0.0 in
12:25 15.6 °F 13.8 °F 1011.4 in Calm   1.6 mph 89 % 0.0 in
12:30 15.8 °F 13.8 °F 1011.4 in Calm   3.2 mph 88 % 0.0 in
12:35 16.0 °F 13.8 °F 1011.4 in Calm   3.2 mph 87 % 0.0 in
12:40 16.1 °F 13.9 °F 1011.1 in Calm   3.2 mph 87 % 0.0 in
12:45 16.2 °F 13.7 °F 1011.1 in Calm   4.8 mph 85 % 0.0 in
12:50 16.3 °F 13.6 °F 1011.1 in Calm   4.8 mph 84 % 0.0 in
12:55 16.4 °F 13.5 °F 1011.1 in Calm   4.8 mph 83 % 0.0 in
13:00 16.4 °F 13.7 °F 1011.1 in Calm   4.8 mph 84 % 0.0 in
13:05 16.6 °F 13.8 °F 1011.1 in Calm   1.6 mph 84 % 0.0 in
13:10 16.6 °F 13.7 °F 1011.1 in Calm   1.6 mph 83 % 0.0 in
13:15 16.6 °F 13.7 °F 1011.1 in Calm   4.8 mph 83 % 0.0 in
13:20 16.5 °F 13.8 °F 1011.1 in Calm   4.8 mph 84 % 0.0 in
13:25 16.4 °F 13.7 °F 1011.4 in Calm     84 % 0.0 in
13:30 16.4 °F 13.7 °F 1011.1 in Calm     84 % 0.0 in
13:35 16.3 °F 13.8 °F 1011.1 in Calm     85 % 0.0 in
13:40 16.3 °F 13.6 °F 1011.1 in Calm     84 % 0.0 in
13:45 16.2 °F 13.7 °F 1011.1 in Calm     85 % 0.0 in
13:50 16.2 °F 13.7 °F 1011.1 in Calm     85 % 0.0 in
13:55 16.1 °F 13.6 °F 1011.1 in Calm     85 % 0.0 in
14:00 16.1 °F 13.6 °F 1011.1 in Calm     85 % 0.0 in
14:05 16.1 °F 13.6 °F 1011.1 in Calm     85 % 0.0 in
14:10 16.1 °F 13.6 °F 1011.1 in Calm   6.4 mph 85 % 0.0 in
14:15 15.9 °F 13.4 °F 1011.1 in Calm   6.4 mph 85 % 0.0 in
14:20 15.9 °F 13.6 °F 1011.1 in Calm   6.4 mph 86 % 0.0 in
14:25 15.9 °F 13.8 °F 1010.7 in Calm   6.4 mph 87 % 0.0 in
14:30 16.0 °F 13.8 °F 1010.7 in Calm   4.8 mph 87 % 0.0 in
14:35 16.1 °F 13.9 °F 1010.7 in Calm   4.8 mph 87 % 0.0 in
14:40 16.2 °F 13.7 °F 1010.7 in Calm     85 % 0.0 in
14:50 16.3 °F 13.8 °F 1010.7 in Calm   1.6 mph 85 % 0.0 in
14:55 16.6 °F 13.9 °F 1010.7 in Calm   3.2 mph 84 % 0.0 in
15:00 16.8 °F 13.6 °F 1010.7 in NW 1.6 mph 8.0 mph 81 % 0.0 in
15:05 16.9 °F 13.7 °F 1010.4 in NW 1.6 mph 8.0 mph 81 % 0.0 in
15:10 16.9 °F 13.4 °F 1010.4 in NW 1.6 mph 6.4 mph 80 % 0.0 in
15:15 16.7 °F 13.6 °F 1010.7 in Calm   4.8 mph 82 % 0.0 in
15:20 16.7 °F 13.6 °F 1010.4 in Calm   4.8 mph 82 % 0.0 in
15:25 16.6 °F 13.7 °F 1010.4 in Calm   1.6 mph 83 % 0.0 in
15:30 16.6 °F 13.9 °F 1010.4 in Calm     84 % 0.0 in
15:35 16.7 °F 13.8 °F 1010.4 in Calm   1.6 mph 83 % 0.0 in
15:40 16.9 °F 13.8 °F 1010.4 in Calm   6.4 mph 82 % 0.0 in
15:50 16.9 °F 13.8 °F 1010.7 in Calm   6.4 mph 82 % 0.0 in
15:55 16.8 °F 13.9 °F 1010.4 in Calm   1.6 mph 83 % 0.0 in
16:00 16.7 °F 13.8 °F 1010.4 in Calm   1.6 mph 83 % 0.0 in
16:05 16.6 °F 14.1 °F 1010.4 in Calm   1.6 mph 85 % 0.0 in
16:10 16.5 °F 14.2 °F 1010.4 in Calm     86 % 0.0 in
16:15 16.4 °F 14.3 °F 1010.4 in Calm     87 % 0.0 in
16:20 16.3 °F 14.4 °F 1010.4 in Calm   1.6 mph 89 % 0.0 in
16:25 16.2 °F 14.0 °F 1010.4 in Calm   1.6 mph 87 % 0.0 in
16:30 16.1 °F 14.1 °F 1010.4 in Calm     88 % 0.0 in
16:35 16.1 °F 14.1 °F 1010.4 in Calm     88 % 0.0 in
16:40 16.1 °F 14.2 °F 1010.4 in Calm     89 % 0.0 in
16:45 16.2 °F 14.5 °F 1010.4 in Calm     90 % 0.0 in
16:50 16.3 °F 14.6 °F 1010.4 in Calm     90 % 0.0 in
16:55 16.4 °F 14.6 °F 1010.4 in Calm     89 % 0.0 in
17:00 16.5 °F 14.3 °F 1010.4 in Calm   1.6 mph 87 % 0.0 in
17:05 16.6 °F 14.4 °F 1010.4 in Calm   1.6 mph 87 % 0.0 in
17:15 16.7 °F 14.1 °F 1010.0 in Calm   3.2 mph 85 % 0.0 in
17:20 16.7 °F 14.4 °F 1010.4 in Calm   3.2 mph 86 % 0.0 in
17:25 16.8 °F 14.4 °F 1010.4 in Calm   3.2 mph 86 % 0.0 in
17:30 16.9 °F 14.4 °F 1010.0 in Calm   3.2 mph 85 % 0.0 in
17:35 17.1 °F 14.3 °F 1010.0 in Calm   1.6 mph 84 % 0.0 in
17:40 17.2 °F 14.4 °F 1010.0 in Calm   1.6 mph 84 % 0.0 in
17:45 17.2 °F 14.5 °F 1010.0 in Calm   1.6 mph 84 % 0.0 in
17:50 17.2 °F 14.5 °F 1010.0 in Calm     84 % 0.0 in
17:55 17.3 °F 14.6 °F 1010.0 in Calm     84 % 0.0 in
18:00 17.3 °F 14.6 °F 1010.0 in Calm     84 % 0.0 in
18:05 17.2 °F 14.5 °F 1010.0 in Calm     84 % 0.0 in
18:10 17.2 °F 14.6 °F 1010.0 in Calm     85 % 0.0 in
18:15 17.1 °F 14.6 °F 1010.0 in Calm     85 % 0.0 in
18:20 17.1 °F 14.5 °F 1010.0 in Calm     85 % 0.0 in
18:25 16.9 °F 14.6 °F 1010.0 in Calm     86 % 0.0 in
18:30 16.8 °F 14.7 °F 1010.0 in Calm     87 % 0.0 in
18:35 16.7 °F 14.6 °F 1010.0 in Calm     87 % 0.0 in
18:40 16.6 °F 14.4 °F 1010.0 in Calm     87 % 0.0 in
18:45 16.5 °F 14.5 °F 1010.0 in Calm     88 % 0.0 in
18:50 16.4 °F 14.2 °F 1010.0 in Calm     87 % 0.0 in
18:55 16.3 °F 14.3 °F 1010.0 in Calm     88 % 0.0 in
19:00 16.2 °F 14.2 °F 1010.0 in Calm     88 % 0.0 in
19:05 16.2 °F 14.2 °F 1010.0 in Calm     88 % 0.0 in
19:10 16.1 °F 14.1 °F 1010.0 in Calm     88 % 0.0 in
19:15 16.1 °F 14.2 °F 1010.0 in Calm     89 % 0.0 in
19:20 16.0 °F 14.2 °F 1010.0 in Calm     89 % 0.0 in
19:30 15.9 °F 14.1 °F 1010.0 in Calm     89 % 0.0 in
19:35 15.8 °F 14.0 °F 1009.7 in Calm     89 % 0.0 in
19:40 15.8 °F 14.2 °F 1009.7 in Calm     90 % 0.0 in
19:45 15.8 °F 14.2 °F 1009.7 in Calm     90 % 0.0 in
19:50 15.7 °F 14.1 °F 1009.7 in Calm     90 % 0.0 in
19:55 15.7 °F 14.1 °F 1009.7 in Calm   1.6 mph 90 % 0.0 in
20:00 15.7 °F 14.1 °F 1009.7 in NNW 1.6 mph 4.8 mph 90 % 0.0 in
20:05 15.6 °F 14.2 °F 1009.7 in Calm   4.8 mph 91 % 0.0 in
20:10 15.6 °F 14.1 °F 1009.7 in Calm     91 % 0.0 in
20:15 15.5 °F 14.1 °F 1009.7 in Calm     91 % 0.0 in
20:20 15.4 °F 14.2 °F 1009.7 in Calm     92 % 0.0 in
20:25 15.4 °F 14.2 °F 1009.7 in Calm   1.6 mph 92 % 0.0 in
20:30 15.4 °F 14.3 °F 1009.7 in Calm   1.6 mph 93 % 0.0 in
20:35 15.4 °F 14.3 °F 1009.7 in Calm   1.6 mph 93 % 0.0 in
20:40 15.3 °F 14.1 °F 1009.7 in Calm   3.2 mph 92 % 0.0 in
20:45 15.3 °F 14.1 °F 1009.7 in Calm   4.8 mph 92 % 0.0 in
20:50 15.3 °F 14.2 °F 1009.7 in Calm   4.8 mph 93 % 0.0 in
20:55 15.3 °F 14.0 °F 1009.7 in Calm     92 % 0.0 in
21:00 15.3 °F 14.2 °F 1009.7 in Calm     93 % 0.0 in
21:05 15.3 °F 14.2 °F 1009.7 in Calm     93 % 0.0 in
21:10 15.3 °F 14.2 °F 1009.7 in Calm   1.6 mph 93 % 0.0 in
21:15 15.3 °F 14.2 °F 1009.7 in Calm   1.6 mph 93 % 0.0 in
21:20 15.3 °F 14.2 °F 1009.7 in Calm     93 % 0.0 in
21:25 15.3 °F 14.2 °F 1009.7 in Calm     93 % 0.0 in
21:30 15.3 °F 14.2 °F 1009.7 in Calm     93 % 0.0 in
21:35 15.3 °F 14.2 °F 1009.7 in Calm     93 % 0.0 in
21:40 15.3 °F 14.2 °F 1009.7 in Calm     93 % 0.0 in
21:45 15.2 °F 14.1 °F 1009.7 in Calm     93 % 0.0 in
21:50 15.2 °F 14.1 °F 1009.7 in Calm     93 % 0.0 in
21:55 15.2 °F 14.1 °F 1009.7 in Calm     93 % 0.0 in
22:00 15.2 °F 14.1 °F 1009.7 in Calm     93 % 0.0 in
22:05 15.1 °F 14.0 °F 1009.7 in Calm     93 % 0.0 in
22:10 15.1 °F 14.0 °F 1009.7 in Calm     93 % 0.0 in
22:15 15.1 °F 13.9 °F 1009.7 in Calm     93 % 0.0 in
22:20 15.1 °F 13.9 °F 1009.7 in Calm     93 % 0.0 in
22:25 15.0 °F 13.9 °F 1009.7 in Calm     93 % 0.0 in
22:30 15.0 °F 13.9 °F 1009.7 in Calm     93 % 0.0 in
22:35 15.0 °F 13.9 °F 1009.7 in Calm     93 % 0.0 in
22:40 14.9 °F 13.8 °F 1009.7 in Calm     93 % 0.0 in
22:45 14.9 °F 13.8 °F 1009.7 in Calm     93 % 0.0 in
22:50 14.9 °F 13.8 °F 1010.0 in Calm     93 % 0.0 in
22:55 14.8 °F 13.7 °F 1010.0 in Calm     93 % 0.0 in
23:00 14.8 °F 13.7 °F 1010.0 in Calm     93 % 0.0 in
23:05 14.8 °F 13.9 °F 1009.7 in Calm     94 % 0.0 in
23:10 14.8 °F 13.7 °F 1009.7 in Calm     93 % 0.0 in
23:15 14.7 °F 13.6 °F 1009.7 in Calm     93 % 0.0 in
23:20 14.7 °F 13.6 °F 1009.7 in Calm     93 % 0.0 in
23:25 14.6 °F 13.5 °F 1010.0 in Calm     93 % 0.0 in
23:30 14.6 °F 13.4 °F 1010.0 in Calm     93 % 0.0 in
23:35 14.5 °F 13.4 °F 1010.0 in Calm     93 % 0.0 in
23:40 14.4 °F 13.3 °F 1010.0 in Calm     93 % 0.0 in
23:45 14.3 °F 13.2 °F 1009.7 in Calm     93 % 0.0 in
23:50 14.3 °F 13.2 °F 1009.7 in Calm     93 % 0.0 in
23:55 14.3 °F 13.2 °F 1009.7 in Calm     93 % 0.0 in
Esan sääasema
Terveisin Weather Underground - 3.75 mb

Alkuperäinen skripti  Jim McMurry - jmcmurry@mwt.net Sovitettu myös templatelle  Wim van der Kuil - Leuven-Template.eu

Laitteet joita käytämme:

Sääasema
Davis VP2

Sääasemaohjelma
Cumulus

Sääaseman tietokone
Asus EeePC

Palveluntarjoaja
Suncomet

Davis VP2

Cumulus

Asus EeePC

Suncomet